Time;durP1;ratioP1;P1;durP2;ratioP2;P2;SDS_P1;SDS_P2;PMS_P1;PMS_P2;Temp;Humidity;BMP_temperature;BMP_pressure;BME280_temperature;BME280_humidity;BME280_pressure;Samples;Min_cycle;Max_cycle;Signal;HPM_P1;HPM_P2
2024/02/09 00:00:12;;;;;;;13.20;2.85;;;;;;;16.86;58.29;98587.69;4898106;29;20037;-69
2024/02/09 00:02:41;;;;;;;7.82;2.53;;;;;;;16.86;58.74;98587.69;4893358;29;20032;-69
2024/02/09 00:05:10;;;;;;;10.60;3.13;;;;;;;16.88;58.56;98580.22;4916519;29;20028;-70
2024/02/09 00:07:35;;;;;;;9.77;2.40;;;;;;;16.89;58.80;98579.16;4916265;29;20084;-69
2024/02/09 00:10:01;;;;;;;14.32;3.42;;;;;;;16.91;58.15;98583.50;4917532;29;20036;-69
2024/02/09 00:12:27;;;;;;;11.63;2.45;;;;;;;16.88;58.01;98568.56;4916396;29;20138;-69
2024/02/09 00:14:52;;;;;;;13.77;3.20;;;;;;;16.84;58.69;98561.94;4916067;29;20040;-69
2024/02/09 00:17:18;;;;;;;10.50;3.25;;;;;;;16.83;58.36;98553.00;4901138;29;20036;-69
2024/02/09 00:19:43;;;;;;;10.98;2.95;;;;;;;16.88;57.88;98564.00;4916893;29;20032;-69
2024/02/09 00:22:12;;;;;;;8.35;2.60;;;;;;;16.87;57.98;98556.91;4920194;29;20040;-69
2024/02/09 00:24:38;;;;;;;9.48;2.28;;;;;;;16.86;57.92;98544.44;4920133;29;20040;-69
2024/02/09 00:27:04;;;;;;;8.38;3.15;;;;;;;16.85;58.31;98556.31;4920503;29;20060;-69
2024/02/09 00:29:30;;;;;;;7.57;2.22;;;;;;;16.85;58.18;98550.91;4921266;29;20040;-68
2024/02/09 00:31:55;;;;;;;6.25;2.85;;;;;;;16.83;58.22;98534.06;4904558;29;20032;-68
2024/02/09 00:34:21;;;;;;;9.57;2.30;;;;;;;16.86;58.10;98536.31;4920482;29;20123;-68
2024/02/09 00:36:53;;;;;;;11.07;2.08;;;;;;;16.86;58.27;98533.63;4919898;29;20377;-67
2024/02/09 00:39:18;;;;;;;9.63;2.22;;;;;;;16.84;57.86;98524.09;4919071;29;20047;-67
2024/02/09 00:41:43;;;;;;;10.07;2.53;;;;;;;16.85;58.34;98523.88;4920800;29;20036;-68
2024/02/09 00:44:09;;;;;;;6.65;1.73;;;;;;;16.79;57.20;98511.25;4919300;29;20500;-67
2024/02/09 00:46:42;;;;;;;4.13;1.52;;;;;;;16.84;58.41;98518.66;4903147;29;20128;-67
2024/02/09 00:49:07;;;;;;;13.50;2.38;;;;;;;16.80;58.17;98518.31;4903811;29;20055;-67
2024/02/09 00:51:33;;;;;;;6.43;2.10;;;;;;;16.80;58.38;98512.91;4920014;29;20428;-67
2024/02/09 00:54:00;;;;;;;8.20;1.65;;;;;;;16.81;57.69;98509.13;4920610;29;20107;-67
2024/02/09 00:56:26;;;;;;;7.18;1.98;;;;;;;16.77;58.19;98497.13;4918980;29;20519;-67
2024/02/09 00:58:51;;;;;;;3.88;1.75;;;;;;;16.79;58.49;98497.72;4919864;29;20059;-67
2024/02/09 01:01:19;;;;;;;9.23;1.92;;;;;;;16.79;57.78;98484.22;4903149;29;20544;-67
2024/02/09 01:03:44;;;;;;;7.38;2.47;;;;;;;16.80;57.62;98485.03;4919089;29;20036;-66
2024/02/09 01:06:09;;;;;;;5.35;2.50;;;;;;;16.80;57.95;98488.56;4919801;29;20123;-66
2024/02/09 01:08:35;;;;;;;4.75;1.92;;;;;;;16.79;58.19;98484.22;4918919;29;20056;-66
2024/02/09 01:11:00;;;;;;;6.75;2.15;;;;;;;16.78;57.69;98474.44;4918449;29;20032;-66
2024/02/09 02:46:23;;;;;;;6.55;0.75;;;;;;;16.74;57.69;98348.06;4917469;29;20028;-68
2024/02/09 03:05:17;;;;;;;3.90;1.02;;;;;;;16.60;57.65;98328.50;4918343;29;20515;-70
2024/02/09 03:07:44;;;;;;;4.22;0.82;;;;;;;16.60;57.30;98339.31;4917165;29;20040;-69
2024/02/09 03:10:10;;;;;;;2.92;0.70;;;;;;;16.60;57.57;98333.91;4918036;29;20051;-69
2024/02/09 03:12:38;;;;;;;3.17;1.63;;;;;;;16.58;56.50;98322.47;4916798;29;20036;-69
2024/02/09 03:15:06;;;;;;;3.58;1.10;;;;;;;16.58;56.90;98333.28;4917343;29;20504;-68
2024/02/09 03:17:32;;;;;;;3.08;0.68;;;;;;;16.57;57.33;98323.56;4918272;29;20036;-68
2024/02/09 03:20:04;;;;;;;2.33;0.85;;;;;;;16.55;57.03;98314.84;4918084;29;20148;-68
2024/02/09 03:22:30;;;;;;;1.58;0.85;;;;;;;16.52;57.75;98304.47;4916475;29;20040;-68
2024/02/09 03:25:02;;;;;;;3.72;1.10;;;;;;;16.60;57.70;98312.28;4917104;29;20051;-68
2024/02/09 03:27:32;;;;;;;2.13;1.10;;;;;;;16.62;56.89;98312.88;4916908;29;20041;-67
2024/02/09 03:29:59;;;;;;;3.05;0.80;;;;;;;16.62;57.47;98304.75;4918089;29;20465;-67
2024/02/09 03:32:28;;;;;;;6.80;1.55;;;;;;;16.65;57.41;98304.31;4917918;29;20384;-67
2024/02/09 03:34:54;;;;;;;6.18;0.70;;;;;;;16.63;57.06;98309.13;4917262;29;20020;-67
2024/02/09 03:37:22;;;;;;;3.17;0.80;;;;;;;16.66;57.24;98308.66;4901297;29;20024;-67
2024/02/09 03:39:48;;;;;;;4.72;0.70;;;;;;;16.68;56.88;98309.25;4917610;29;20123;-67
2024/02/09 03:42:13;;;;;;;2.72;1.23;;;;;;;16.68;56.64;98309.25;4901574;29;20116;-67
2024/02/09 03:44:38;;;;;;;2.35;0.70;;;;;;;16.64;57.00;98302.66;4919064;29;20087;-67
2024/02/09 03:47:04;;;;;;;3.72;0.80;;;;;;;16.62;56.42;98304.75;4916563;29;20064;-67
2024/02/09 03:49:29;;;;;;;4.03;1.00;;;;;;;16.64;57.79;98297.25;4917506;29;20032;-66
2024/02/09 03:51:55;;;;;;;0.85;0.52;;;;;;;16.68;57.40;98293.03;4915966;29;20032;-70
2024/02/09 03:54:20;;;;;;;3.13;0.70;;;;;;;16.65;57.18;98307.00;4917824;29;20095;-70
2024/02/09 03:56:46;;;;;;;1.73;0.65;;;;;;;16.64;57.68;98294.53;4917861;29;20099;-70
2024/02/09 03:59:12;;;;;;;1.50;0.73;;;;;;;16.60;57.35;98287.13;4916191;29;20067;-70
2024/02/09 04:01:37;;;;;;;2.97;0.70;;;;;;;16.58;57.49;98291.94;4916423;29;20151;-70
2024/02/09 04:04:04;;;;;;;1.05;0.95;;;;;;;16.59;57.79;98283.59;4916208;29;20064;-69
2024/02/09 04:06:29;;;;;;;1.98;0.52;;;;;;;16.60;57.49;98279.84;4917979;29;20036;-70
2024/02/09 04:08:58;;;;;;;0.82;0.40;;;;;;;16.62;57.77;98285.84;4919049;29;20056;-69
2024/02/09 04:11:24;;;;;;;0.65;0.50;;;;;;;16.64;56.85;98281.03;4904277;29;20043;-70
2024/02/09 04:13:49;;;;;;;0.75;0.65;;;;;;;16.65;57.41;98276.44;4916217;29;20028;-70
2024/02/09 04:16:19;;;;;;;5.35;0.95;;;;;;;16.65;57.70;98262.94;4916128;29;20108;-69
2024/02/09 04:18:45;;;;;;;3.13;0.70;;;;;;;16.61;57.24;98265.25;4915604;29;20443;-69
2024/02/09 04:21:11;;;;;;;1.35;0.65;;;;;;;16.60;57.31;98260.94;4916092;29;20036;-69
2024/02/09 04:23:39;;;;;;;1.50;0.47;;;;;;;16.61;57.71;98278.78;4916408;29;20412;-69
2024/02/09 04:26:04;;;;;;;2.95;0.40;;;;;;;16.60;57.73;98269.03;4916406;29;20488;-69
2024/02/09 04:28:29;;;;;;;1.50;0.50;;;;;;;16.63;57.54;98274.00;4917155;29;20120;-69
2024/02/09 04:30:55;;;;;;;2.35;0.82;;;;;;;16.62;57.70;98277.72;4917111;29;20111;-69
2024/02/09 04:33:20;;;;;;;2.80;0.50;;;;;;;16.62;56.83;98276.91;4916402;29;20456;-69
2024/02/09 04:35:45;;;;;;;2.05;0.90;;;;;;;16.62;56.98;98277.72;4900205;29;20492;-69
2024/02/09 04:38:12;;;;;;;3.80;0.68;;;;;;;16.64;57.52;98289.13;4917312;29;20119;-68
2024/02/09 04:40:38;;;;;;;2.55;0.80;;;;;;;16.63;56.91;98274.00;4915849;29;20032;-69
2024/02/09 04:43:05;;;;;;;2.05;0.68;;;;;;;16.63;57.08;98276.69;4916960;29;20100;-69
2024/02/09 04:45:30;;;;;;;1.50;0.60;;;;;;;16.65;57.75;98271.88;4916144;29;20154;-69
2024/02/09 04:47:56;;;;;;;8.55;0.60;;;;;;;16.64;56.48;98272.09;4915344;29;20532;-69
2024/02/09 04:50:22;;;;;;;3.90;1.00;;;;;;;16.62;57.21;98260.69;4916083;29;20491;-69
2024/02/09 04:52:48;;;;;;;4.88;0.63;;;;;;;16.64;57.07;98262.09;4914768;29;20037;-69
2024/02/09 04:55:15;;;;;;;3.50;0.77;;;;;;;16.67;57.71;98252.69;4899994;29;20063;-69
2024/02/09 04:57:42;;;;;;;1.58;0.93;;;;;;;16.65;57.01;98255.66;4916021;29;20043;-69
2024/02/09 05:00:09;;;;;;;3.78;0.77;;;;;;;16.66;58.12;98241.09;4917212;29;20044;-69
2024/02/09 05:02:34;;;;;;;3.38;0.55;;;;;;;16.70;57.96;98258.47;4915410;29;20115;-65
2024/02/09 05:04:59;;;;;;;3.05;0.88;;;;;;;16.69;56.96;98239.81;4915024;29;20139;-66
2024/02/09 05:07:25;;;;;;;0.80;0.70;;;;;;;16.72;57.13;98239.34;4901964;29;20040;-65
2024/02/09 05:09:50;;;;;;;0.95;0.55;;;;;;;16.76;57.09;98245.91;4902148;29;20044;-66
2024/02/09 05:12:15;;;;;;;2.13;0.75;;;;;;;16.76;57.28;98235.94;4918518;29;20044;-66
2024/02/09 05:14:41;;;;;;;3.05;0.98;;;;;;;16.77;57.58;98239.47;4902262;29;20496;-65
2024/02/09 05:17:06;;;;;;;2.65;0.60;;;;;;;16.78;57.51;98241.09;4912747;29;20453;-65
2024/02/09 05:19:31;;;;;;;1.40;0.63;;;;;;;16.79;57.35;98242.75;4883577;29;20498;-65
2024/02/09 05:21:58;;;;;;;0.47;0.43;;;;;;;16.81;57.17;98249.56;4883709;29;20068;-66
2024/02/09 05:24:23;;;;;;;0.55;0.32;;;;;;;16.79;57.19;98234.63;4899435;29;20037;-65
2024/02/09 05:26:51;;;;;;;0.93;0.70;;;;;;;16.83;57.56;98238.53;4900560;29;20539;-65
2024/02/09 05:29:17;;;;;;;1.95;0.75;;;;;;;16.85;57.03;98239.94;4899418;29;20052;-65
2024/02/09 05:31:44;;;;;;;8.50;1.00;;;;;;;16.86;57.04;98236.16;4900292;29;20033;-65
2024/02/09 05:34:10;;;;;;;1.52;0.90;;;;;;;16.88;56.36;98217.84;4899921;29;20060;-65
2024/02/09 05:36:36;;;;;;;1.48;0.90;;;;;;;16.88;56.88;98219.72;4900188;29;20045;-65
2024/02/09 05:39:02;;;;;;;2.20;0.85;;;;;;;16.88;56.64;98223.25;4899068;29;20056;-66
2024/02/09 05:41:28;;;;;;;3.42;0.93;;;;;;;16.91;57.23;98237.38;4898961;29;20148;-65
2024/02/09 05:43:57;;;;;;;1.65;0.55;;;;;;;16.92;57.21;98222.78;4883415;29;20088;-66
2024/02/09 05:46:25;;;;;;;1.02;0.50;;;;;;;16.94;56.45;98221.50;4899231;29;20037;-65
2024/02/09 05:48:51;;;;;;;2.72;0.77;;;;;;;16.95;56.84;98217.72;4917401;29;20054;-65
2024/02/09 05:51:18;;;;;;;2.15;1.10;;;;;;;16.98;56.92;98205.59;4886572;29;20060;-66
2024/02/09 05:53:48;;;;;;;2.13;0.75;;;;;;;17.05;57.07;98206.34;4918582;29;20519;-65
2024/02/09 05:56:20;;;;;;;4.50;1.05;;;;;;;17.06;57.02;98205.25;4871630;29;20063;-65
2024/02/09 05:58:47;;;;;;;1.17;0.85;;;;;;;17.09;57.08;98210.19;4901596;29;20052;-66
2024/02/09 06:01:13;;;;;;;3.97;1.48;;;;;;;17.07;56.74;98212.31;4901786;29;20032;-65
2024/02/09 06:03:41;;;;;;;2.20;0.85;;;;;;;17.08;56.85;98204.00;4886457;29;20083;-65
2024/02/09 06:06:06;;;;;;;1.38;0.90;;;;;;;17.12;56.94;98218.69;4901471;29;20036;-65
2024/02/09 06:08:33;;;;;;;2.03;0.80;;;;;;;17.15;56.93;98220.91;4918883;29;20377;-66
2024/02/09 06:10:59;;;;;;;2.90;1.10;;;;;;;17.15;57.18;98206.56;4901947;29;20047;-65
2024/02/09 06:13:25;;;;;;;12.88;1.63;;;;;;;17.20;56.41;98217.50;4885801;29;20032;-66
2024/02/09 06:15:51;;;;;;;5.18;1.10;;;;;;;17.19;57.11;98223.97;4918326;29;20051;-66
2024/02/09 06:18:16;;;;;;;1.70;0.85;;;;;;;17.22;56.51;98228.91;4886451;29;20040;-66
2024/02/09 06:20:41;;;;;;;4.20;1.02;;;;;;;17.21;56.84;98221.84;4918578;29;20551;-66
2024/02/09 06:23:07;;;;;;;2.80;1.15;;;;;;;17.19;55.82;98218.56;4886190;29;20448;-65
2024/02/09 06:25:32;;;;;;;5.90;0.77;;;;;;;17.16;56.04;98214.47;4901408;29;20036;-65
2024/02/09 06:28:03;;;;;;;2.78;1.35;;;;;;;17.17;56.60;98212.59;4918510;29;20036;-66
2024/02/09 06:30:29;;;;;;;6.78;1.27;;;;;;;17.16;56.34;98219.03;4901858;29;20040;-65
2024/02/09 06:32:55;;;;;;;10.70;1.83;;;;;;;17.22;56.38;98218.09;4885840;29;20032;-66
2024/02/09 06:35:20;;;;;;;3.00;0.80;;;;;;;17.25;55.98;98214.94;4918324;29;20511;-66
2024/02/09 06:37:46;;;;;;;7.28;1.27;;;;;;;17.25;56.28;98213.03;4885477;29;20040;-65
2024/02/09 06:40:13;;;;;;;2.67;1.02;;;;;;;17.27;55.86;98215.50;4901150;29;20397;-64
2024/02/09 06:42:40;;;;;;;4.03;1.05;;;;;;;17.30;55.63;98217.75;4900358;29;20048;-66
2024/02/09 06:45:07;;;;;;;3.53;1.05;;;;;;;17.32;56.03;98212.91;4901536;29;20059;-67
2024/02/09 06:47:32;;;;;;;3.08;0.82;;;;;;;17.33;55.71;98218.09;4901103;29;20048;-64
2024/02/09 06:49:57;;;;;;;7.18;1.05;;;;;;;17.36;55.69;98214.09;4885045;29;20039;-63
2024/02/09 06:52:23;;;;;;;7.13;1.75;;;;;;;17.37;55.26;98216.56;4884946;29;20043;-63
2024/02/09 06:54:49;;;;;;;2.45;1.17;;;;;;;17.42;56.05;98213.13;4917679;29;20475;-64
2024/02/09 06:57:14;;;;;;;3.55;1.38;;;;;;;17.46;56.17;98215.13;4917188;29;20432;-64
2024/02/09 06:59:45;;;;;;;2.78;1.20;;;;;;;17.50;55.56;98215.50;4899172;29;20540;-64
2024/02/09 07:02:11;;;;;;;3.08;0.90;;;;;;;17.55;55.89;98218.34;4900617;29;20032;-64
2024/02/09 07:04:36;;;;;;;2.92;1.58;;;;;;;17.55;55.54;98214.81;4900167;29;20055;-65
2024/02/09 07:07:05;;;;;;;5.70;1.00;;;;;;;17.59;55.09;98218.69;4900288;29;20055;-64
2024/02/09 07:09:33;;;;;;;6.60;1.10;;;;;;;17.59;55.21;98219.50;4900477;29;20032;-64
2024/02/09 07:12:02;;;;;;;4.38;1.90;;;;;;;17.60;55.56;98215.72;4900038;29;20419;-64
2024/02/09 07:14:27;;;;;;;10.43;1.23;;;;;;;17.61;55.61;98220.09;4900322;29;20043;-65
2024/02/09 07:16:53;;;;;;;5.30;1.13;;;;;;;17.63;55.26;98220.66;4900138;29;20423;-64
2024/02/09 07:19:18;;;;;;;3.13;1.08;;;;;;;17.65;55.32;98233.97;4917128;29;20040;-64
2024/02/09 07:21:46;;;;;;;4.80;1.10;;;;;;;17.60;55.44;98221.16;4884569;29;20036;-63
2024/02/09 07:24:11;;;;;;;6.97;1.50;;;;;;;17.60;54.79;98231.97;4900125;29;20496;-64
2024/02/09 07:26:37;;;;;;;4.10;1.15;;;;;;;17.60;55.34;98231.97;4900066;29;20056;-65
2024/02/09 07:29:03;;;;;;;1.50;0.80;;;;;;;17.60;55.59;98215.72;4883947;29;20017;-65
2024/02/09 07:31:30;;;;;;;3.17;0.77;;;;;;;17.62;55.13;98229.84;4899714;29;20095;-64
2024/02/09 07:33:55;;;;;;;3.75;1.10;;;;;;;17.62;55.62;98213.59;4914912;29;20039;-64
2024/02/09 07:36:21;;;;;;;2.78;1.23;;;;;;;17.65;55.52;98223.13;4898618;29;20016;-64
2024/02/09 07:38:47;;;;;;;1.75;0.68;;;;;;;17.65;55.56;98232.06;4899689;29;20066;-64
2024/02/09 07:41:16;;;;;;;6.38;1.38;;;;;;;17.66;55.05;98222.91;4899942;29;20028;-64
2024/02/09 07:43:42;;;;;;;5.35;1.50;;;;;;;17.70;55.08;98225.97;4916951;29;20043;-64
2024/02/09 07:46:08;;;;;;;3.05;1.33;;;;;;;17.73;54.95;98222.75;4927849;29;20368;-65
2024/02/09 07:48:33;;;;;;;3.88;1.10;;;;;;;17.76;55.30;98220.41;4930978;29;20044;-64
2024/02/09 07:50:58;;;;;;;5.40;1.33;;;;;;;17.77;55.37;98222.06;4924400;29;20031;-64
2024/02/09 07:53:24;;;;;;;2.88;0.95;;;;;;;17.82;55.28;98218.63;4933546;29;20034;-64
2024/02/09 07:55:49;;;;;;;3.47;1.55;;;;;;;17.85;55.04;98224.38;4902750;29;20032;-64
2024/02/09 07:58:16;;;;;;;4.35;1.30;;;;;;;17.86;55.19;98217.91;4934714;29;20023;-64
2024/02/09 08:00:42;;;;;;;10.48;1.20;;;;;;;17.89;54.75;98214.75;4935412;29;20072;-65
2024/02/09 08:03:10;;;;;;;8.43;1.35;;;;;;;17.92;55.09;98222.34;4918456;29;20023;-64
2024/02/09 08:05:37;;;;;;;3.53;1.00;;;;;;;17.95;55.35;98219.16;4918313;29;20046;-64
2024/02/09 08:08:03;;;;;;;3.03;1.70;;;;;;;17.97;54.65;98227.91;4935559;29;20166;-64
2024/02/09 08:10:29;;;;;;;5.40;1.10;;;;;;;18.03;55.03;98235.03;4918077;29;20095;-65
2024/02/09 08:12:55;;;;;;;4.78;1.38;;;;;;;18.11;54.65;98219.47;4918802;29;20028;-64
2024/02/09 08:15:23;;;;;;;2.97;0.80;;;;;;;18.22;54.52;98218.63;4886992;29;20387;-65
2024/02/09 08:17:48;;;;;;;3.28;1.08;;;;;;;18.29;54.44;98213.84;4935740;29;20042;-64
2024/02/09 08:20:14;;;;;;;2.10;1.00;;;;;;;18.36;54.60;98219.97;4935309;29;20039;-65
2024/02/09 08:22:44;;;;;;;3.63;1.17;;;;;;;18.40;54.04;98218.41;4935218;29;20043;-63
2024/02/09 08:25:12;;;;;;;2.15;1.55;;;;;;;18.38;53.91;98218.66;4934316;29;20024;-64
2024/02/09 08:27:38;;;;;;;1.95;1.02;;;;;;;18.44;54.38;98222.28;4934135;29;20031;-64
2024/02/09 08:30:07;;;;;;;2.45;0.73;;;;;;;18.49;54.68;98230.53;4919347;29;20031;-64
2024/02/09 08:32:35;;;;;;;5.47;1.67;;;;;;;18.51;53.59;98239.22;4935782;29;20028;-64
2024/02/09 08:35:01;;;;;;;1.98;0.82;;;;;;;18.55;53.73;98214.13;4936244;29;20178;-64
2024/02/09 08:37:29;;;;;;;3.17;0.82;;;;;;;18.63;53.82;98226.44;4918289;29;20136;-64
2024/02/09 08:39:55;;;;;;;3.30;0.88;;;;;;;18.66;53.40;98230.56;4933890;29;20558;-65
2024/02/09 08:42:20;;;;;;;10.55;1.05;;;;;;;18.64;53.91;98216.44;4937890;29;20076;-64
2024/02/09 08:44:45;;;;;;;5.45;0.95;;;;;;;18.68;53.35;98229.25;4920633;29;20502;-64
2024/02/09 08:47:11;;;;;;;7.88;1.10;;;;;;;18.74;53.69;98235.56;4937381;29;20443;-64
2024/02/09 08:49:39;;;;;;;3.28;0.80;;;;;;;18.79;53.16;98222.13;4921769;29;20495;-65
2024/02/09 08:52:05;;;;;;;3.10;0.90;;;;;;;18.87;53.55;98232.56;4938741;28;20044;-64
2024/02/09 08:54:33;;;;;;;4.82;1.35;;;;;;;18.94;53.53;98234.03;4938588;29;20115;-64
2024/02/09 08:57:00;;;;;;;3.20;1.27;;;;;;;19.00;52.85;98241.19;4921659;29;20040;-64
2024/02/09 08:59:26;;;;;;;2.97;0.90;;;;;;;19.05;53.07;98232.31;4905866;29;20036;-65
2024/02/09 09:01:51;;;;;;;2.50;0.80;;;;;;;19.11;52.31;98224.00;4938446;29;20549;-65
2024/02/09 09:04:18;;;;;;;3.80;0.90;;;;;;;19.17;52.86;98239.31;4921597;29;20039;-64
2024/02/09 09:06:44;;;;;;;3.53;0.98;;;;;;;19.19;52.57;98230.91;4921267;29;20110;-65
2024/02/09 09:09:12;;;;;;;3.53;1.23;;;;;;;19.30;52.59;98232.69;4904425;29;20094;-64
2024/02/09 09:11:37;;;;;;;4.35;1.13;;;;;;;19.49;52.41;98235.97;4938261;29;20039;-64
2024/02/09 09:14:03;;;;;;;3.95;0.90;;;;;;;19.57;52.58;98232.88;4920905;29;20415;-64
2024/02/09 09:16:29;;;;;;;2.67;0.90;;;;;;;19.72;51.96;98230.34;4921018;29;20071;-64
2024/02/09 09:18:54;;;;;;;4.10;0.63;;;;;;;19.82;51.74;98230.47;4921091;29;20036;-64
2024/02/09 09:21:20;;;;;;;3.10;0.70;;;;;;;19.87;51.91;98225.13;4937850;29;20036;-64
2024/02/09 09:23:45;;;;;;;2.22;0.77;;;;;;;19.91;52.26;98228.94;4938074;29;20527;-64
2024/02/09 09:26:11;;;;;;;3.65;0.75;;;;;;;20.00;51.26;98235.59;4904856;29;20115;-64
2024/02/09 09:28:36;;;;;;;4.35;0.93;;;;;;;20.14;51.52;98230.59;4937922;29;20044;-64
2024/02/09 09:31:01;;;;;;;2.05;0.88;;;;;;;20.15;50.50;98235.78;4920607;29;20043;-64
2024/02/09 09:33:27;;;;;;;5.78;1.15;;;;;;;20.16;51.06;98236.59;4937602;28;20098;-64
2024/02/09 09:35:53;;;;;;;2.92;0.63;;;;;;;20.22;51.18;98239.13;4937754;29;20032;-64
2024/02/09 09:38:19;;;;;;;5.97;1.20;;;;;;;20.28;50.71;98229.97;4935127;29;20122;-64
2024/02/09 09:40:48;;;;;;;5.50;0.60;;;;;;;20.35;51.02;98237.94;4936477;29;20036;-65
2024/02/09 09:43:17;;;;;;;4.07;0.93;;;;;;;20.36;50.83;98225.97;4937778;29;20059;-65
2024/02/09 09:45:43;;;;;;;3.83;1.25;;;;;;;20.37;50.91;98216.75;4920905;29;20122;-64
2024/02/09 09:48:13;;;;;;;4.57;0.88;;;;;;;20.43;50.73;98225.78;4920269;29;20171;-64
2024/02/09 09:50:38;;;;;;;5.38;1.52;;;;;;;20.53;50.06;98223.16;4936274;29;20039;-64
2024/02/09 09:53:04;;;;;;;3.70;0.82;;;;;;;20.59;50.02;98231.13;4929963;29;20040;-64
2024/02/09 09:55:30;;;;;;;3.80;1.73;;;;;;;20.67;50.55;98227.09;4918175;29;20408;-64
2024/02/09 09:57:55;;;;;;;2.72;0.70;;;;;;;20.82;49.51;98238.97;4936272;29;20114;-64
2024/02/09 10:00:21;;;;;;;0.93;0.60;;;;;;;21.22;49.79;98224.88;4919026;29;20134;-63
2024/02/09 10:02:49;;;;;;;2.60;0.77;;;;;;;21.31;49.16;98234.22;4920320;29;20035;-64
2024/02/09 10:05:15;;;;;;;2.78;0.70;;;;;;;21.53;48.92;98228.63;4937367;29;20028;-65
2024/02/09 10:07:42;;;;;;;6.22;1.45;;;;;;;21.63;49.03;98234.16;4936317;29;20046;-64
2024/02/09 10:10:11;;;;;;;1.90;0.50;;;;;;;21.48;48.73;98232.16;4936308;29;20471;-65
2024/02/09 10:12:38;;;;;;;2.28;1.50;;;;;;;21.37;49.56;98235.88;4937528;29;20047;-65
2024/02/09 10:15:04;;;;;;;4.65;0.80;;;;;;;21.32;49.16;98235.03;4936026;29;20119;-64
2024/02/09 10:17:31;;;;;;;2.00;1.38;;;;;;;21.29;49.82;98244.53;4935826;29;20028;-64
2024/02/09 10:19:59;;;;;;;4.85;0.85;;;;;;;21.23;49.63;98248.31;4935057;29;20036;-64
2024/02/09 10:22:26;;;;;;;1.50;0.80;;;;;;;21.17;49.49;98237.63;4933602;29;20044;-65
2024/02/09 10:24:51;;;;;;;1.42;0.90;;;;;;;21.16;48.97;98252.34;4929698;29;20566;-64
2024/02/09 10:27:17;;;;;;;1.60;0.60;;;;;;;21.12;49.66;98245.75;4938198;29;20059;-65
2024/02/09 10:29:43;;;;;;;3.45;1.15;;;;;;;21.06;49.95;98253.03;4935646;29;20028;-64
2024/02/09 10:32:08;;;;;;;8.13;1.00;;;;;;;21.04;49.76;98248.94;4935581;29;20115;-64
2024/02/09 10:34:36;;;;;;;3.50;1.02;;;;;;;20.97;49.95;98245.59;4932906;29;20127;-63
2024/02/09 10:37:03;;;;;;;2.00;1.42;;;;;;;20.98;49.13;98245.34;4919912;29;20036;-63
2024/02/09 10:39:31;;;;;;;3.75;1.40;;;;;;;20.98;49.57;98248.06;4936732;29;20048;-64
2024/02/09 10:42:03;;;;;;;1.17;1.08;;;;;;;21.01;48.91;98255.72;4936300;29;20036;-64
2024/02/09 10:44:32;;;;;;;3.30;0.90;;;;;;;21.04;49.23;98252.50;4935513;29;20040;-63
2024/02/09 10:46:59;;;;;;;1.92;1.00;;;;;;;21.08;49.59;98256.34;4936265;29;20032;-64
2024/02/09 10:49:29;;;;;;;2.20;1.27;;;;;;;21.14;48.71;98251.75;4935303;29;20407;-64
2024/02/09 10:51:58;;;;;;;1.45;0.80;;;;;;;21.25;48.35;98257.03;4935113;29;20090;-64
2024/02/09 10:54:30;;;;;;;5.10;1.35;;;;;;;21.35;48.35;98267.19;4935197;29;20040;-64
2024/02/09 10:56:57;;;;;;;1.70;0.80;;;;;;;21.52;48.32;98261.59;4936808;29;20040;-64
2024/02/09 10:59:24;;;;;;;2.17;0.85;;;;;;;21.64;48.38;98264.91;4919335;29;20086;-64
2024/02/09 11:01:50;;;;;;;4.10;0.98;;;;;;;21.61;48.98;98268.19;4935426;29;20023;-63
2024/02/09 11:04:15;;;;;;;3.42;1.00;;;;;;;21.57;48.68;98259.72;4934167;29;20032;-63
2024/02/09 11:06:41;;;;;;;4.32;0.77;;;;;;;21.62;48.88;98264.38;4934721;29;20051;-64
2024/02/09 11:09:09;;;;;;;4.65;0.95;;;;;;;21.63;48.29;98268.75;4934400;29;20115;-64
2024/02/09 11:11:35;;;;;;;6.30;1.15;;;;;;;21.63;47.71;98263.28;4936312;29;20015;-64
2024/02/09 11:14:08;;;;;;;4.25;1.40;;;;;;;21.60;48.61;98267.38;4934837;29;20023;-63
2024/02/09 11:16:46;;;;;;;2.90;0.80;;;;;;;21.58;47.88;98268.72;4918771;29;20044;-63
2024/02/09 11:19:17;;;;;;;4.15;1.83;;;;;;;21.50;47.84;98263.75;4918682;29;20028;-63
2024/02/09 11:21:49;;;;;;;1.27;0.70;;;;;;;21.45;48.61;98259.09;4934626;29;20050;-63
2024/02/09 11:24:20;;;;;;;3.25;0.65;;;;;;;21.44;48.67;98266.44;4934648;29;20422;-63
2024/02/09 11:26:50;;;;;;;6.88;1.48;;;;;;;21.38;48.46;98261.22;4928390;29;20032;-63
2024/02/09 11:29:17;;;;;;;4.30;0.95;;;;;;;21.33;48.90;98264.72;4918855;29;20514;-63
2024/02/09 11:31:50;;;;;;;4.22;1.42;;;;;;;21.24;48.46;98271.75;4936400;29;20034;-63
2024/02/09 11:34:20;;;;;;;1.98;0.63;;;;;;;21.17;48.57;98264.84;4934782;29;20035;-63
2024/02/09 11:36:46;;;;;;;2.33;1.10;;;;;;;21.10;47.78;98269.72;4902735;29;20028;-63
2024/02/09 11:39:12;;;;;;;1.75;0.55;;;;;;;21.04;48.37;98263.38;4935474;29;20495;-63
2024/02/09 11:41:37;;;;;;;4.60;0.57;;;;;;;21.05;47.78;98261.47;4918592;29;20036;-64
2024/02/09 11:44:04;;;;;;;2.80;0.80;;;;;;;21.02;48.00;98268.22;4902784;29;20036;-63
2024/02/09 11:46:30;;;;;;;1.70;0.90;;;;;;;21.03;48.70;98264.44;4935334;29;20032;-63
2024/02/09 11:48:56;;;;;;;2.10;0.70;;;;;;;21.07;48.07;98253.88;4902696;29;20056;-63
2024/02/09 11:51:21;;;;;;;0.70;0.43;;;;;;;21.11;48.46;98265.88;4918620;29;20028;-63
2024/02/09 11:53:51;;;;;;;5.93;0.85;;;;;;;21.12;47.64;98276.53;4918575;29;20036;-63
2024/02/09 11:56:18;;;;;;;4.47;0.75;;;;;;;21.14;48.39;98266.19;4902396;29;20035;-63
2024/02/09 11:58:44;;;;;;;3.17;0.82;;;;;;;21.12;48.62;98256.66;4935529;29;20031;-64
2024/02/09 12:01:10;;;;;;;4.00;1.25;;;;;;;21.12;48.05;98262.09;4935370;29;20036;-63
2024/02/09 12:03:36;;;;;;;3.38;1.15;;;;;;;21.10;48.57;98264.28;4918326;29;20087;-63
2024/02/09 12:06:05;;;;;;;2.38;0.90;;;;;;;21.04;47.58;98270.72;4935408;29;20118;-63
2024/02/09 12:08:31;;;;;;;1.80;0.75;;;;;;;21.01;48.49;98265.78;4903094;29;20038;-63
2024/02/09 12:10:56;;;;;;;4.85;0.68;;;;;;;20.98;47.46;98256.25;4918107;29;20119;-63
2024/02/09 12:13:22;;;;;;;3.35;0.88;;;;;;;20.99;48.34;98268.78;4918304;29;20036;-63
2024/02/09 12:15:48;;;;;;;1.65;0.70;;;;;;;21.01;48.16;98266.63;4920422;29;20038;-63
2024/02/09 12:18:15;;;;;;;2.40;1.00;;;;;;;21.03;47.96;98261.72;4939083;29;20032;-64
2024/02/09 12:20:41;;;;;;;1.05;0.90;;;;;;;21.07;48.33;98259.31;4922157;29;20091;-63
2024/02/09 12:23:07;;;;;;;1.50;0.88;;;;;;;21.14;47.32;98263.47;4939081;29;20131;-63
2024/02/09 12:25:37;;;;;;;3.05;0.95;;;;;;;21.28;47.17;98261.97;4922118;29;20046;-63
2024/02/09 12:28:04;;;;;;;2.70;0.82;;;;;;;21.46;47.61;98264.28;4921839;29;20403;-63
2024/02/09 12:30:29;;;;;;;2.30;0.63;;;;;;;21.58;47.61;98261.34;4939029;29;20388;-64
2024/02/09 12:32:59;;;;;;;3.50;0.65;;;;;;;21.69;46.82;98267.69;4921720;29;20035;-63
2024/02/09 12:35:29;;;;;;;1.02;0.77;;;;;;;21.76;47.40;98269.09;4921814;29;20036;-63
2024/02/09 12:37:58;;;;;;;0.70;0.60;;;;;;;21.97;46.32;98261.88;4938790;29;20028;-63
2024/02/09 12:40:24;;;;;;;1.92;0.60;;;;;;;22.12;46.73;98267.41;4921956;29;20028;-63
2024/02/09 12:42:53;;;;;;;4.45;1.48;;;;;;;22.23;46.51;98271.81;4921755;29;20031;-63
2024/02/09 12:45:19;;;;;;;3.20;0.70;;;;;;;22.28;46.82;98277.28;4938736;29;20166;-63
2024/02/09 12:47:46;;;;;;;2.97;1.08;;;;;;;22.20;46.81;98264.16;4921873;29;20500;-63
2024/02/09 12:50:12;;;;;;;3.42;0.80;;;;;;;22.09;46.77;98267.09;4921715;29;20404;-63
2024/02/09 12:52:39;;;;;;;3.83;0.93;;;;;;;21.96;46.46;98279.31;4938398;29;20043;-63
2024/02/09 12:55:05;;;;;;;2.20;0.90;;;;;;;21.92;45.94;98279.03;4906659;29;20035;-63
2024/02/09 12:57:30;;;;;;;5.57;0.93;;;;;;;21.89;46.59;98276.00;4939342;29;20040;-63
2024/02/09 12:59:55;;;;;;;5.15;1.40;;;;;;;21.92;46.75;98273.56;4939213;29;20411;-63
2024/02/09 13:02:22;;;;;;;6.30;1.45;;;;;;;21.97;46.62;98275.53;4912465;29;20040;-63
2024/02/09 13:04:48;;;;;;;1.92;0.90;;;;;;;21.98;46.33;98269.78;4921275;29;20118;-63
2024/02/09 13:07:14;;;;;;;1.30;0.85;;;;;;;22.07;45.60;98264.66;4921263;29;20531;-63
2024/02/09 13:09:40;;;;;;;2.55;0.90;;;;;;;22.13;46.01;98258.13;4905481;29;20118;-63
2024/02/09 13:12:06;;;;;;;2.67;1.05;;;;;;;22.13;46.21;98266.31;4921255;29;20043;-63
2024/02/09 13:14:34;;;;;;;1.25;0.90;;;;;;;22.14;46.13;98253.50;4921132;29;20031;-63
2024/02/09 13:17:00;;;;;;;3.70;1.02;;;;;;;22.12;45.56;98252.94;4921336;29;20027;-63
2024/02/09 13:19:25;;;;;;;3.95;1.10;;;;;;;22.19;45.86;98262.53;4920730;29;20407;-65